Sycamore, Illinois
Current Conditions -  °F | °C
As of 5:15 AM on Sunday 23 Nov 2014 (Local Time) from KDKB Reporting Station
NA  
Wind Chill: 40°   Ceiling: NA
Heat Index: 46°   Visibility: NA
Dew Point: 44°   Wind: 13mph
Humidity: 92%   Direction: 180°S
Pressure: 29.74"   Gusts: NA
Location:  41.99°N, 88.68°W
Report Text: KDKB 231115Z AUTO 18011KT 08/06 A2974 RMK AO2 T00760064 PWINO
Loading
Personal Weather Stations






























Interactive Weather Map New forecast layout! Learn more

10-Day Weather Forecast

Advertisements
Track Severe Weather on mobile